createdAt,value
2018-01-25T00:00:45.830Z,86.30
2018-01-25T00:03:14.186Z,87.50
2018-01-25T00:05:41.745Z,87.40
2018-01-25T00:08:10.051Z,86.50
2018-01-25T00:10:37.621Z,85.90
2018-01-25T00:13:05.173Z,85.80
2018-01-25T00:15:32.740Z,86.00
2018-01-25T00:18:00.307Z,85.80
2018-01-25T00:20:27.864Z,86.50
2018-01-25T00:22:55.416Z,87.60
2018-01-25T00:25:22.974Z,87.20
2018-01-25T00:27:50.520Z,86.20
2018-01-25T00:30:18.851Z,85.10
2018-01-25T00:32:46.423Z,85.10
2018-01-25T00:35:13.990Z,85.10
2018-01-25T00:37:41.552Z,85.30
2018-01-25T00:40:09.087Z,85.40
2018-01-25T00:42:36.661Z,85.50
2018-01-25T00:45:04.213Z,86.10
2018-01-25T00:47:31.760Z,86.40
2018-01-25T00:49:59.339Z,87.10
2018-01-25T00:52:26.880Z,87.50
2018-01-25T00:54:54.459Z,87.10
2018-01-25T00:57:22.012Z,86.40
2018-01-25T00:59:49.592Z,86.00
2018-01-25T01:02:17.932Z,86.40
2018-01-25T01:04:47.783Z,86.40
2018-01-25T01:07:16.102Z,86.50
2018-01-25T01:09:43.643Z,86.30
2018-01-25T01:12:11.195Z,87.00
2018-01-25T01:14:39.506Z,86.60
2018-01-25T01:17:07.087Z,86.60
2018-01-25T01:19:34.624Z,86.00
2018-01-25T01:22:02.207Z,86.20
2018-01-25T01:24:29.766Z,87.20
2018-01-25T01:26:57.334Z,86.70
2018-01-25T01:29:24.886Z,86.70
2018-01-25T01:31:52.472Z,86.20
2018-01-25T01:34:20.040Z,87.10
2018-01-25T01:36:48.367Z,85.90
2018-01-25T01:39:16.187Z,85.80
2018-01-25T01:41:44.515Z,85.90
2018-01-25T01:44:12.092Z,85.90
2018-01-25T01:46:39.655Z,86.50
2018-01-25T01:49:07.234Z,87.20
2018-01-25T01:51:35.548Z,86.70
2018-01-25T01:54:03.111Z,86.60
2018-01-25T01:56:30.682Z,87.60
2018-01-25T01:58:58.247Z,87.40
2018-01-25T02:01:25.819Z,87.10
2018-01-25T02:03:53.357Z,87.10
2018-01-25T02:06:20.906Z,86.20
2018-01-25T02:08:48.443Z,86.30
2018-01-25T02:11:16.781Z,87.00
2018-01-25T02:13:44.343Z,86.90
2018-01-25T02:16:11.903Z,86.10
2018-01-25T02:18:39.463Z,86.30
2018-01-25T02:21:07.027Z,86.40
2018-01-25T02:23:34.579Z,85.90
2018-01-25T02:26:02.121Z,85.80
2018-01-25T02:28:29.674Z,85.20
2018-01-25T02:30:57.206Z,85.60
2018-01-25T02:33:26.950Z,85.80
2018-01-25T02:35:54.492Z,85.50
2018-01-25T02:38:22.061Z,85.80
2018-01-25T02:40:49.615Z,85.80
2018-01-25T02:43:17.176Z,86.00
2018-01-25T02:45:44.742Z,85.00
2018-01-25T02:48:12.279Z,85.30
2018-01-25T02:50:39.830Z,85.80
2018-01-25T02:53:07.383Z,86.30
2018-01-25T02:55:34.948Z,87.10
2018-01-25T02:58:02.486Z,86.60
2018-01-25T03:00:30.829Z,85.90
2018-01-25T03:02:58.390Z,85.90
2018-01-25T03:05:25.947Z,86.10
2018-01-25T03:07:53.510Z,85.50
2018-01-25T03:10:21.071Z,84.40
2018-01-25T03:12:48.642Z,83.30
2018-01-25T03:15:17.704Z,81.90
2018-01-25T03:17:45.269Z,81.80
2018-01-25T03:20:12.831Z,81.50
2018-01-25T03:22:40.388Z,81.30
2018-01-25T03:25:07.955Z,81.10
2018-01-25T03:27:35.517Z,81.70
2018-01-25T03:30:03.068Z,82.50
2018-01-25T03:32:30.634Z,83.00
2018-01-25T03:34:58.185Z,83.70
2018-01-25T03:37:25.744Z,84.00
2018-01-25T03:39:53.300Z,84.10
2018-01-25T03:42:20.845Z,84.50
2018-01-25T03:44:48.404Z,85.00
2018-01-25T03:47:15.952Z,85.50
2018-01-25T03:49:43.512Z,85.50
2018-01-25T03:52:11.065Z,85.70
2018-01-25T03:54:39.396Z,85.60
2018-01-25T03:57:06.959Z,85.60
2018-01-25T03:59:34.496Z,85.70
2018-01-25T04:02:02.056Z,85.30
2018-01-25T04:04:29.590Z,85.40
2018-01-25T04:06:57.156Z,85.60
2018-01-25T04:09:24.720Z,86.00
2018-01-25T04:11:52.283Z,86.10
2018-01-25T04:14:19.833Z,86.50
2018-01-25T04:16:47.401Z,86.90
2018-01-25T04:19:14.964Z,86.80
2018-01-25T04:21:42.532Z,87.00
2018-01-25T04:24:10.095Z,87.70
2018-01-25T04:26:37.633Z,86.70
2018-01-25T04:29:05.848Z,86.70
2018-01-25T04:31:33.415Z,86.90
2018-01-25T04:34:01.027Z,86.80
2018-01-25T04:36:28.581Z,87.30
2018-01-25T04:38:56.160Z,85.90
2018-01-25T04:41:23.704Z,86.10
2018-01-25T04:43:51.262Z,86.30
2018-01-25T04:46:18.823Z,86.30
2018-01-25T04:48:46.429Z,86.40
2018-01-25T04:51:13.990Z,86.00
2018-01-25T04:53:41.527Z,86.10
2018-01-25T04:56:09.097Z,86.70
2018-01-25T04:58:36.650Z,86.80
2018-01-25T05:01:04.245Z,87.60
2018-01-25T05:03:32.665Z,87.10
2018-01-25T05:06:00.226Z,86.40
2018-01-25T05:08:27.777Z,85.90
2018-01-25T05:10:55.392Z,86.30
2018-01-25T05:13:22.938Z,86.20
2018-01-25T05:15:50.474Z,86.80
2018-01-25T05:18:18.055Z,86.30
2018-01-25T05:20:45.613Z,86.10
2018-01-25T05:23:13.166Z,86.40
2018-01-25T05:25:40.711Z,86.40
2018-01-25T05:28:08.289Z,86.40
2018-01-25T05:30:35.837Z,86.60
2018-01-25T05:33:03.389Z,86.80
2018-01-25T05:35:30.971Z,86.90
2018-01-25T05:37:58.526Z,86.20
2018-01-25T05:40:26.105Z,86.30
2018-01-25T05:42:53.667Z,85.80
2018-01-25T05:45:21.269Z,85.60
2018-01-25T05:47:48.812Z,85.70
2018-01-25T05:50:17.129Z,85.90
2018-01-25T05:52:44.676Z,85.90
2018-01-25T05:55:12.235Z,85.80
2018-01-25T05:57:39.805Z,85.80
2018-01-25T06:00:07.361Z,86.70
2018-01-25T06:02:34.925Z,86.00
2018-01-25T06:05:02.487Z,86.50
2018-01-25T06:07:30.061Z,86.70
2018-01-25T06:09:57.605Z,86.60
2018-01-25T06:12:25.197Z,86.70
2018-01-25T06:14:52.757Z,86.60
2018-01-25T06:17:20.329Z,87.00
2018-01-25T06:19:47.877Z,86.80
2018-01-25T06:22:15.422Z,87.70
2018-01-25T06:24:42.981Z,86.60
2018-01-25T06:27:10.520Z,86.90
2018-01-25T06:29:38.087Z,86.90
2018-01-25T06:32:05.622Z,86.70
2018-01-25T06:34:33.198Z,86.90
2018-01-25T06:37:00.748Z,86.70
2018-01-25T06:39:28.313Z,86.70
2018-01-25T06:41:55.848Z,86.50
2018-01-25T06:44:23.408Z,86.60
2018-01-25T06:46:50.962Z,86.50
2018-01-25T06:49:19.291Z,86.80
2018-01-25T06:51:46.857Z,86.80
2018-01-25T06:54:14.391Z,86.60
2018-01-25T06:56:41.971Z,86.80
2018-01-25T06:59:09.521Z,86.30
2018-01-25T07:01:37.071Z,86.40
2018-01-25T07:04:04.628Z,86.40
2018-01-25T07:06:32.184Z,86.30
2018-01-25T07:08:59.732Z,86.60
2018-01-25T07:11:27.272Z,86.80
2018-01-25T07:13:55.595Z,86.70
2018-01-25T07:16:23.155Z,86.70
2018-01-25T07:18:50.726Z,87.00
2018-01-25T07:21:18.281Z,86.90
2018-01-25T07:23:45.840Z,87.20
2018-01-25T07:26:13.389Z,86.70
2018-01-25T07:28:40.947Z,86.90
2018-01-25T07:31:08.505Z,86.90
2018-01-25T07:33:36.057Z,87.40
2018-01-25T07:36:03.607Z,87.80
2018-01-25T07:38:31.144Z,87.60
2018-01-25T07:40:59.470Z,88.30
2018-01-25T07:43:27.016Z,88.30
2018-01-25T07:45:54.570Z,88.30
2018-01-25T07:48:22.129Z,88.10
2018-01-25T07:50:49.691Z,87.50
2018-01-25T07:53:17.233Z,88.30
2018-01-25T07:55:44.806Z,88.80
2018-01-25T07:58:19.021Z,89.30
2018-01-25T08:00:46.608Z,88.30
2018-01-25T08:03:14.171Z,89.10
2018-01-25T08:05:41.726Z,87.70
2018-01-25T08:08:09.285Z,88.10
2018-01-25T08:10:36.851Z,87.10
2018-01-25T08:13:10.087Z,86.20
2018-01-25T08:15:37.627Z,85.40
2018-01-25T08:18:05.974Z,83.70
2018-01-25T08:20:33.530Z,83.70
2018-01-25T08:23:01.086Z,81.90
2018-01-25T08:25:28.633Z,81.90
2018-01-25T08:27:56.177Z,81.00
2018-01-25T08:30:23.734Z,79.80
2018-01-25T08:32:51.294Z,77.60
2018-01-25T08:35:18.887Z,77.90
2018-01-25T08:37:46.427Z,77.00
2018-01-25T08:40:14.086Z,77.30
2018-01-25T08:42:41.637Z,77.30
2018-01-25T08:45:09.207Z,77.60
2018-01-25T08:47:36.749Z,77.70
2018-01-25T08:50:04.279Z,74.00
2018-01-25T08:52:32.614Z,75.40
2018-01-25T08:55:00.161Z,75.40
2018-01-25T08:57:27.751Z,75.90
2018-01-25T08:59:55.338Z,75.50
2018-01-25T09:02:23.683Z,72.50
2018-01-25T09:04:51.222Z,72.50
2018-01-25T09:07:18.796Z,74.70
2018-01-25T09:09:46.350Z,73.70
2018-01-25T09:12:14.006Z,72.60
2018-01-25T09:14:41.625Z,70.90
2018-01-25T09:17:09.190Z,70.80
2018-01-25T09:19:37.542Z,71.80
2018-01-25T09:22:05.866Z,71.10
2018-01-25T09:24:33.438Z,71.10
2018-01-25T09:27:01.018Z,69.70
2018-01-25T09:29:28.577Z,70.60
2018-01-25T09:31:56.138Z,69.00
2018-01-25T09:34:23.703Z,65.20
2018-01-25T09:36:51.261Z,63.90
2018-01-25T09:39:18.809Z,60.60
2018-01-25T09:41:46.386Z,60.00
2018-01-25T09:44:13.953Z,64.30
2018-01-25T09:46:41.539Z,63.00
2018-01-25T09:49:09.861Z,58.40
2018-01-25T09:51:37.485Z,58.50
2018-01-25T09:54:05.021Z,63.00
2018-01-25T09:56:33.369Z,61.60
2018-01-25T09:59:00.932Z,61.50
2018-01-25T10:01:28.499Z,60.60
2018-01-25T10:03:56.068Z,54.40
2018-01-25T10:06:23.643Z,53.20
2018-01-25T10:08:51.985Z,52.40
2018-01-25T10:11:19.554Z,52.30
2018-01-25T10:13:47.138Z,50.40
2018-01-25T10:16:15.485Z,55.30
2018-01-25T10:18:43.833Z,54.60
2018-01-25T10:21:11.410Z,54.60
2018-01-25T10:23:39.007Z,56.30
2018-01-25T10:26:07.325Z,57.90
2018-01-25T10:28:34.885Z,57.90
2018-01-25T10:31:02.470Z,58.00
2018-01-25T10:33:30.029Z,58.20
2018-01-25T10:35:57.599Z,52.70
2018-01-25T10:38:25.157Z,54.20
2018-01-25T10:40:52.743Z,53.80
2018-01-25T10:43:20.283Z,55.50
2018-01-25T10:45:47.824Z,56.30
2018-01-25T10:48:15.379Z,53.10
2018-01-25T10:50:42.932Z,52.80
2018-01-25T10:53:10.501Z,50.30
2018-01-25T10:55:38.057Z,50.00
2018-01-25T10:58:05.615Z,46.60
2018-01-25T11:00:38.780Z,47.30
2018-01-25T11:03:06.343Z,48.60
2018-01-25T11:05:33.897Z,45.00
2018-01-25T11:08:01.478Z,45.60
2018-01-25T11:10:29.047Z,44.80
2018-01-25T11:12:56.650Z,44.00
2018-01-25T11:15:24.999Z,47.70
2018-01-25T11:17:52.556Z,47.60
2018-01-25T11:20:20.123Z,51.40
2018-01-25T11:22:47.695Z,46.20
2018-01-25T11:25:16.034Z,44.60
2018-01-25T11:27:43.593Z,44.60
2018-01-25T11:30:11.170Z,46.60
2018-01-25T11:32:38.719Z,45.00
2018-01-25T11:35:06.295Z,44.20
2018-01-25T11:37:33.870Z,45.40
2018-01-25T11:40:01.429Z,46.30
2018-01-25T11:42:29.034Z,44.90
2018-01-25T11:44:56.575Z,45.00
2018-01-25T11:47:24.897Z,47.20
2018-01-25T11:49:52.449Z,47.20
2018-01-25T11:52:20.005Z,45.00
2018-01-25T11:54:47.561Z,45.20
2018-01-25T11:57:15.155Z,44.00
2018-01-25T11:59:43.467Z,46.50
2018-01-25T12:02:11.789Z,45.50
2018-01-25T12:04:39.405Z,45.50
2018-01-25T12:07:06.959Z,44.90
2018-01-25T12:09:35.312Z,47.40
2018-01-25T12:12:02.855Z,47.40
2018-01-25T12:14:30.415Z,46.00
2018-01-25T12:16:57.987Z,49.70
2018-01-25T12:19:25.572Z,47.30
2018-01-25T12:21:53.936Z,49.50
2018-01-25T12:24:21.453Z,49.50
2018-01-25T12:26:49.029Z,47.90
2018-01-25T12:29:16.599Z,47.90
2018-01-25T12:31:44.187Z,47.70
2018-01-25T12:34:12.516Z,46.50
2018-01-25T12:36:40.087Z,46.40
2018-01-25T12:39:07.654Z,47.00
2018-01-25T12:41:35.238Z,45.90
2018-01-25T12:44:03.547Z,46.90
2018-01-25T12:46:31.135Z,46.90
2018-01-25T12:48:58.707Z,48.80
2018-01-25T12:51:26.269Z,47.60
2018-01-25T12:53:53.845Z,48.10
2018-01-25T12:56:21.415Z,49.70
2018-01-25T12:58:49.738Z,52.60
2018-01-25T13:01:17.288Z,51.80
2018-01-25T13:03:44.852Z,49.30
2018-01-25T13:06:12.410Z,48.90
2018-01-25T13:08:40.003Z,49.60
2018-01-25T13:11:07.561Z,50.90
2018-01-25T13:13:35.102Z,51.10
2018-01-25T13:16:02.670Z,50.00
2018-01-25T13:18:30.229Z,48.50
2018-01-25T13:20:57.816Z,51.10
2018-01-25T13:23:25.380Z,55.00
2018-01-25T13:25:53.725Z,54.90
2018-01-25T13:28:21.263Z,54.90
2018-01-25T13:30:48.840Z,54.60
2018-01-25T13:33:22.147Z,54.10
2018-01-25T13:35:49.746Z,54.20
2018-01-25T13:38:18.063Z,54.70
2018-01-25T13:40:45.616Z,54.70
2018-01-25T13:43:13.202Z,56.10
2018-01-25T13:45:40.761Z,54.00
2018-01-25T13:48:08.338Z,56.80
2018-01-25T13:50:35.885Z,57.40
2018-01-25T13:53:03.449Z,58.50
2018-01-25T13:55:30.991Z,62.60
2018-01-25T13:57:58.551Z,62.20
2018-01-25T14:00:26.114Z,61.80
2018-01-25T14:02:53.660Z,62.40
2018-01-25T14:05:21.246Z,62.00
2018-01-25T14:07:48.784Z,62.90
2018-01-25T14:10:16.361Z,62.50
2018-01-25T14:12:43.926Z,61.30
2018-01-25T14:15:11.506Z,60.00
2018-01-25T14:17:39.079Z,62.70
2018-01-25T14:20:07.431Z,64.90
2018-01-25T14:22:34.990Z,64.90
2018-01-25T14:25:02.556Z,64.70
2018-01-25T14:27:30.128Z,65.50
2018-01-25T14:29:57.671Z,65.30
2018-01-25T14:32:25.241Z,66.40
2018-01-25T14:34:53.574Z,66.40
2018-01-25T14:37:21.133Z,66.20
2018-01-25T14:39:48.680Z,63.20
2018-01-25T14:42:16.254Z,64.40
2018-01-25T14:44:43.814Z,65.90
2018-01-25T14:47:11.384Z,67.80
2018-01-25T14:49:38.956Z,67.50
2018-01-25T14:52:06.520Z,66.40
2018-01-25T14:54:34.079Z,65.00
2018-01-25T14:57:01.637Z,64.30
2018-01-25T14:59:29.209Z,65.20
2018-01-25T15:01:56.766Z,67.80
2018-01-25T15:04:24.353Z,67.40
2018-01-25T15:06:52.668Z,68.50
2018-01-25T15:09:20.241Z,68.50
2018-01-25T15:11:47.789Z,68.80
2018-01-25T15:14:15.342Z,70.40
2018-01-25T15:16:42.908Z,71.70
2018-01-25T15:19:10.467Z,70.40
2018-01-25T15:21:38.042Z,69.90
2018-01-25T15:24:05.586Z,71.20
2018-01-25T15:26:33.171Z,72.80
2018-01-25T15:29:00.787Z,72.20
2018-01-25T15:31:28.371Z,72.00
2018-01-25T15:33:55.937Z,72.70
2018-01-25T15:36:23.499Z,74.20
2018-01-25T15:38:51.071Z,74.30
2018-01-25T15:41:18.624Z,74.00
2018-01-25T15:43:46.193Z,73.90
2018-01-25T15:46:13.745Z,73.80
2018-01-25T15:48:41.331Z,74.00
2018-01-25T15:51:09.646Z,74.10
2018-01-25T15:53:37.226Z,74.10
2018-01-25T15:56:04.772Z,75.10
2018-01-25T15:58:32.363Z,72.00
2018-01-25T16:00:59.916Z,69.90
2018-01-25T16:03:27.484Z,72.00
2018-01-25T16:05:55.042Z,72.50
2018-01-25T16:08:22.606Z,71.60
2018-01-25T16:10:50.173Z,71.60
2018-01-25T16:13:17.739Z,72.00
2018-01-25T16:15:45.300Z,72.90
2018-01-25T16:18:18.443Z,75.50
2018-01-25T16:20:46.013Z,75.00
2018-01-25T16:23:13.566Z,74.80
2018-01-25T16:25:41.156Z,74.10
2018-01-25T16:28:08.719Z,73.70
2018-01-25T16:30:36.283Z,72.70
2018-01-25T16:33:03.858Z,72.40
2018-01-25T16:35:32.173Z,71.10
2018-01-25T16:37:59.748Z,71.10
2018-01-25T16:40:27.299Z,71.00
2018-01-25T16:42:54.852Z,72.90
2018-01-25T16:45:22.427Z,73.10
2018-01-25T16:47:49.983Z,72.30
2018-01-25T16:50:17.515Z,71.00
2018-01-25T16:52:45.842Z,72.20
2018-01-25T16:55:13.487Z,71.00
2018-01-25T16:57:41.037Z,70.80
2018-01-25T17:00:08.586Z,71.10
2018-01-25T17:02:36.118Z,71.80
2018-01-25T17:05:04.436Z,71.40
2018-01-25T17:07:31.974Z,71.40
2018-01-25T17:09:59.523Z,71.90
2018-01-25T17:12:27.855Z,72.80
2018-01-25T17:14:55.420Z,72.80
2018-01-25T17:17:23.003Z,72.90
2018-01-25T17:19:51.311Z,73.40
2018-01-25T17:22:18.881Z,73.40
2018-01-25T17:24:46.415Z,73.40
2018-01-25T17:27:14.760Z,73.70
2018-01-25T17:29:43.120Z,73.70
2018-01-25T17:32:10.700Z,74.20
2018-01-25T17:34:38.508Z,73.40
2018-01-25T17:37:06.100Z,73.30
2018-01-25T17:39:34.486Z,73.60
2018-01-25T17:42:02.023Z,74.00
2018-01-25T17:44:29.589Z,74.40
2018-01-25T17:46:57.139Z,74.10
2018-01-25T17:49:24.692Z,73.70
2018-01-25T17:51:52.248Z,74.20
2018-01-25T17:54:19.831Z,73.60
2018-01-25T17:56:47.440Z,74.80
2018-01-25T17:59:15.782Z,75.80
2018-01-25T18:01:43.334Z,75.80
2018-01-25T18:04:10.892Z,76.00
2018-01-25T18:06:38.461Z,75.90
2018-01-25T18:09:06.012Z,76.00
2018-01-25T18:11:33.591Z,75.90
2018-01-25T18:14:01.146Z,76.10
2018-01-25T18:16:28.732Z,76.40
2018-01-25T18:18:57.058Z,76.50
2018-01-25T18:21:24.639Z,76.50
2018-01-25T18:23:52.192Z,76.10
2018-01-25T18:26:19.755Z,76.10
2018-01-25T18:28:47.301Z,76.50
2018-01-25T18:31:14.854Z,77.10
2018-01-25T18:33:42.435Z,77.10
2018-01-25T18:36:09.991Z,77.50
2018-01-25T18:38:37.553Z,77.50
2018-01-25T18:41:05.112Z,77.90
2018-01-25T18:43:32.691Z,77.80
2018-01-25T18:46:00.995Z,77.90
2018-01-25T18:48:29.325Z,78.20
2018-01-25T18:50:56.863Z,78.30
2018-01-25T18:53:26.074Z,77.80
2018-01-25T18:55:55.249Z,77.40
2018-01-25T18:58:22.815Z,77.40
2018-01-25T19:00:50.407Z,77.40
2018-01-25T19:03:17.960Z,77.40
2018-01-25T19:05:45.530Z,77.90
2018-01-25T19:08:13.091Z,78.30
2018-01-25T19:10:40.647Z,77.00
2018-01-25T19:13:08.202Z,76.70
2018-01-25T19:15:35.772Z,77.80
2018-01-25T19:18:04.863Z,76.40
2018-01-25T19:20:32.406Z,76.40
2018-01-25T19:23:00.035Z,76.60
2018-01-25T19:25:28.348Z,77.30
2018-01-25T19:27:55.930Z,77.30
2018-01-25T19:30:23.707Z,77.50
2018-01-25T19:32:52.039Z,77.70
2018-01-25T19:35:19.601Z,77.70
2018-01-25T19:37:47.163Z,77.70
2018-01-25T19:40:14.713Z,78.00
2018-01-25T19:42:42.263Z,78.10
2018-01-25T19:45:09.832Z,78.30
2018-01-25T19:47:37.370Z,78.40
2018-01-25T19:50:05.925Z,78.40
2018-01-25T19:52:34.237Z,78.10
2018-01-25T19:55:01.812Z,77.40
2018-01-25T19:57:29.379Z,76.80
2018-01-25T19:59:56.953Z,76.90
2018-01-25T20:02:24.505Z,76.70
2018-01-25T20:04:52.066Z,76.60
2018-01-25T20:07:19.641Z,76.70
2018-01-25T20:09:47.475Z,77.20
2018-01-25T20:12:15.055Z,77.40
2018-01-25T20:14:42.618Z,77.10
2018-01-25T20:17:10.171Z,76.50
2018-01-25T20:19:37.715Z,76.20
2018-01-25T20:22:05.299Z,76.00
2018-01-25T20:24:32.858Z,75.50
2018-01-25T20:27:00.493Z,75.50
2018-01-25T20:29:28.032Z,75.10
2018-01-25T20:31:55.577Z,75.00
2018-01-25T20:34:23.900Z,76.10
2018-01-25T20:36:51.467Z,76.10
2018-01-25T20:39:19.023Z,76.30
2018-01-25T20:41:46.591Z,76.50
2018-01-25T20:44:14.230Z,76.20
2018-01-25T20:46:41.799Z,75.40
2018-01-25T20:49:09.358Z,75.60
2018-01-25T20:51:36.904Z,75.80
2018-01-25T20:54:04.464Z,75.90
2018-01-25T20:56:32.250Z,76.00
2018-01-25T20:58:59.819Z,75.80
2018-01-25T21:01:27.374Z,75.70
2018-01-25T21:03:54.929Z,76.30
2018-01-25T21:06:22.483Z,75.40
2018-01-25T21:08:50.038Z,75.00
2018-01-25T21:11:17.618Z,74.70
2018-01-25T21:13:45.173Z,74.30
2018-01-25T21:16:12.717Z,74.00
2018-01-25T21:18:40.271Z,75.00
2018-01-25T21:21:07.817Z,73.80
2018-01-25T21:23:35.378Z,73.80
2018-01-25T21:26:03.075Z,73.70
2018-01-25T21:28:30.627Z,74.20
2018-01-25T21:30:58.180Z,74.10
2018-01-25T21:33:25.743Z,74.00
2018-01-25T21:35:53.302Z,74.40
2018-01-25T21:38:20.839Z,74.80
2018-01-25T21:40:48.423Z,75.10
2018-01-25T21:43:15.962Z,74.60
2018-01-25T21:45:43.723Z,74.40
2018-01-25T21:48:11.258Z,74.40
2018-01-25T21:50:38.819Z,74.50
2018-01-25T21:53:06.377Z,74.00
2018-01-25T21:55:33.943Z,74.30
2018-01-25T21:58:01.541Z,75.30
2018-01-25T22:00:29.103Z,75.90
2018-01-25T22:02:56.669Z,76.80
2018-01-25T22:05:24.231Z,78.10
2018-01-25T22:07:51.815Z,78.50
2018-01-25T22:10:20.141Z,79.80
2018-01-25T22:12:47.718Z,79.90
2018-01-25T22:15:15.293Z,80.60
2018-01-25T22:17:42.883Z,80.90
2018-01-25T22:20:11.186Z,81.70
2018-01-25T22:22:38.747Z,81.70
2018-01-25T22:25:06.308Z,81.50
2018-01-25T22:27:33.872Z,80.90
2018-01-25T22:30:01.423Z,81.30
2018-01-25T22:32:28.978Z,81.30
2018-01-25T22:34:56.560Z,81.10
2018-01-25T22:37:24.122Z,81.30
2018-01-25T22:39:51.687Z,81.40
2018-01-25T22:42:19.231Z,81.10
2018-01-25T22:44:47.563Z,81.60
2018-01-25T22:47:15.906Z,81.50
2018-01-25T22:49:43.439Z,81.50
2018-01-25T22:52:11.009Z,80.90
2018-01-25T22:54:38.557Z,80.70
2018-01-25T22:57:06.117Z,80.60
2018-01-25T22:59:33.663Z,81.00
2018-01-25T23:02:01.236Z,81.20
2018-01-25T23:04:28.789Z,81.10
2018-01-25T23:06:56.346Z,82.00
2018-01-25T23:09:23.919Z,81.40
2018-01-25T23:11:51.469Z,82.50
2018-01-25T23:14:19.028Z,81.80
2018-01-25T23:16:46.581Z,82.20
2018-01-25T23:19:14.164Z,82.60
2018-01-25T23:21:41.719Z,82.60
2018-01-25T23:24:09.281Z,82.50
2018-01-25T23:26:36.834Z,82.50
2018-01-25T23:29:04.368Z,82.60
2018-01-25T23:31:31.956Z,82.80
2018-01-25T23:33:59.495Z,82.60
2018-01-25T23:36:27.057Z,82.60
2018-01-25T23:38:54.614Z,83.00
2018-01-25T23:41:22.163Z,82.70
2018-01-25T23:43:50.481Z,82.90
2018-01-25T23:46:18.063Z,82.90
2018-01-25T23:48:45.620Z,82.70
2018-01-25T23:51:13.173Z,82.50
2018-01-25T23:53:40.736Z,82.90
2018-01-25T23:56:08.270Z,83.10
2018-01-25T23:58:35.828Z,83.20
